Time;durP1;ratioP1;P1;durP2;ratioP2;P2;SDS_P1;SDS_P2;PMS_P1;PMS_P2;Temp;Humidity;BMP_temperature;BMP_pressure;BME280_temperature;BME280_humidity;BME280_pressure;Samples;Min_cycle;Max_cycle;Signal;HPM_P1;HPM_P2
2022/10/05 00:01:30;;;;;;;10.00;6.80;;;;;;;9.33;80.94;100799.25;130365;1271;108722;-74
2022/10/05 00:04:36;;;;;;;11.80;7.10;;;;;;;9.29;81.16;100803.38;130448;1268;108562;-75
2022/10/05 00:07:41;;;;;;;11.50;7.00;;;;;;;9.25;81.01;100805.80;130453;1268;108714;-74
2022/10/05 00:10:47;;;;;;;11.10;7.40;;;;;;;9.20;81.03;100804.97;130358;1268;108781;-74
2022/10/05 00:13:53;;;;;;;11.10;7.00;;;;;;;9.13;80.91;100805.06;130413;1268;108919;-75
2022/10/05 00:16:58;;;;;;;10.60;6.80;;;;;;;9.05;81.15;100797.71;130514;1267;108141;-74
2022/10/05 00:20:19;;;;;;;9.80;5.10;;;;;;;8.98;81.06;100793.02;130444;1268;108642;-74
2022/10/05 00:23:29;;;;;;;11.10;6.70;;;;;;;8.93;81.31;100785.06;130539;1268;108740;-74
2022/10/05 00:26:34;;;;;;;11.80;7.10;;;;;;;8.91;81.01;100783.88;130492;1268;108659;-73
2022/10/05 00:29:40;;;;;;;13.50;8.20;;;;;;;8.88;81.08;100775.03;130489;1268;108809;-74
2022/10/05 00:32:46;;;;;;;12.70;7.40;;;;;;;8.87;81.29;100769.48;130527;1268;108835;-73
2022/10/05 00:35:51;;;;;;;12.80;7.90;;;;;;;8.84;81.29;100761.89;130435;1268;109541;-75
2022/10/05 00:39:00;;;;;;;14.40;9.90;;;;;;;8.80;81.35;100754.58;130502;1268;108976;-75
2022/10/05 00:42:21;;;;;;;16.70;9.10;;;;;;;8.75;81.57;100759.78;130457;1268;108937;-75
2022/10/05 00:45:33;;;;;;;16.40;8.60;;;;;;;8.73;81.83;100775.40;130478;1268;108788;-75
2022/10/05 00:48:49;;;;;;;19.80;11.00;;;;;;;8.74;81.74;100776.56;130542;1268;107670;-75
2022/10/05 00:52:04;;;;;;;17.50;11.00;;;;;;;8.78;81.86;100773.02;130603;1268;108808;-75
2022/10/05 00:55:18;;;;;;;16.80;10.70;;;;;;;8.83;81.92;100772.45;130402;1268;108791;-75
2022/10/05 00:58:34;;;;;;;19.70;11.50;;;;;;;8.84;82.02;100777.16;130406;1268;108772;-75
2022/10/05 01:01:48;;;;;;;18.00;11.40;;;;;;;8.84;81.91;100775.77;130390;1268;109056;-75
2022/10/05 01:05:00;;;;;;;19.70;11.80;;;;;;;8.84;82.01;100770.79;130333;1268;108672;-75
2022/10/05 01:08:14;;;;;;;19.10;10.70;;;;;;;8.82;82.05;100765.27;130371;1268;108714;-75
2022/10/05 01:11:25;;;;;;;15.80;9.90;;;;;;;8.83;82.22;100762.00;130445;1268;109074;-75
2022/10/05 01:14:38;;;;;;;17.30;10.90;;;;;;;8.84;82.33;100761.67;130406;1268;108802;-75
2022/10/05 01:17:49;;;;;;;17.20;12.00;;;;;;;8.90;82.42;100764.96;130343;1268;109002;-75
2022/10/05 01:21:03;;;;;;;18.70;11.70;;;;;;;8.96;82.43;100752.20;130567;1268;109147;-75
2022/10/05 01:24:31;;;;;;;17.70;11.50;;;;;;;9.00;82.51;100750.23;130482;1268;107817;-77
2022/10/05 01:27:48;;;;;;;17.10;11.40;;;;;;;9.02;82.42;100754.70;130414;1268;108989;-75
2022/10/05 01:31:08;;;;;;;15.40;9.90;;;;;;;9.01;82.36;100755.98;130161;1271;108753;-75
2022/10/05 01:34:23;;;;;;;18.10;10.30;;;;;;;8.99;82.50;100765.19;130283;1268;108537;-75
2022/10/05 01:37:41;;;;;;;16.00;10.00;;;;;;;9.01;82.51;100762.90;130407;1268;108987;-75
2022/10/05 01:40:58;;;;;;;18.70;11.30;;;;;;;9.03;82.39;100766.64;130430;1268;108855;-75
2022/10/05 01:44:08;;;;;;;16.30;10.90;;;;;;;9.05;82.40;100762.56;130529;1268;109726;-75
2022/10/05 01:47:21;;;;;;;17.10;11.10;;;;;;;9.06;82.44;100770.20;130626;1268;108878;-75
2022/10/05 01:50:34;;;;;;;17.50;11.30;;;;;;;9.03;82.25;100771.80;130484;1268;108880;-75
2022/10/05 01:53:54;;;;;;;16.70;11.20;;;;;;;8.97;82.43;100778.64;130548;1268;108966;-75
2022/10/05 01:57:12;;;;;;;15.30;10.10;;;;;;;8.92;82.50;100781.83;130581;1267;108435;-74
2022/10/05 02:00:20;;;;;;;15.40;8.90;;;;;;;8.87;82.53;100785.77;130413;1268;109017;-74
2022/10/05 02:03:32;;;;;;;16.50;9.60;;;;;;;8.87;82.55;100793.23;130664;1268;108813;-75
2022/10/05 02:06:41;;;;;;;15.50;9.70;;;;;;;8.88;82.37;100787.81;130382;1268;109065;-74
2022/10/05 02:09:53;;;;;;;12.80;9.00;;;;;;;8.89;82.50;100780.84;130364;1268;108959;-76
2022/10/05 02:13:09;;;;;;;13.00;9.40;;;;;;;8.88;82.63;100772.59;130476;1268;109020;-74
2022/10/05 02:16:21;;;;;;;15.50;9.00;;;;;;;8.85;82.57;100761.48;130436;1268;108738;-75
2022/10/05 02:19:35;;;;;;;14.80;9.60;;;;;;;8.80;82.60;100756.23;130377;1268;108991;-77
2022/10/05 02:22:46;;;;;;;13.90;8.20;;;;;;;8.71;82.70;100757.84;130222;1268;108883;-75
2022/10/05 02:25:55;;;;;;;14.70;8.00;;;;;;;8.68;82.80;100754.41;131035;1268;108676;-75
2022/10/05 02:29:04;;;;;;;14.60;9.00;;;;;;;8.69;82.89;100738.55;131667;1268;108755;-75
2022/10/05 02:32:14;;;;;;;13.80;8.50;;;;;;;8.72;82.95;100731.54;130451;1268;107801;-75
2022/10/05 02:35:21;;;;;;;13.30;8.20;;;;;;;8.76;83.14;100737.73;130422;1268;108669;-75
2022/10/05 02:38:37;;;;;;;12.00;8.20;;;;;;;8.79;83.11;100745.84;130216;1271;108930;-75
2022/10/05 02:41:51;;;;;;;11.90;8.40;;;;;;;8.79;83.24;100749.02;130363;1268;108830;-75
2022/10/05 02:45:07;;;;;;;14.20;7.50;;;;;;;8.78;83.13;100751.23;130331;1268;108766;-75
2022/10/05 02:48:20;;;;;;;12.50;7.10;;;;;;;8.78;83.18;100747.98;130330;1268;108792;-76
2022/10/05 02:51:32;;;;;;;13.70;7.70;;;;;;;8.79;83.25;100744.20;130494;1268;108935;-75
2022/10/05 02:54:48;;;;;;;14.10;8.60;;;;;;;8.82;83.33;100755.85;130505;1268;108957;-75
2022/10/05 02:58:03;;;;;;;12.10;7.60;;;;;;;8.84;83.17;100742.58;130493;1268;107585;-75
2022/10/05 03:01:16;;;;;;;13.60;8.10;;;;;;;8.82;83.32;100737.38;130473;1268;108885;-77
2022/10/05 03:04:33;;;;;;;12.80;7.80;;;;;;;8.80;83.12;100729.44;130451;1268;108827;-75
2022/10/05 03:07:46;;;;;;;13.50;8.30;;;;;;;8.72;83.31;100734.13;130374;1268;108624;-75
2022/10/05 03:11:04;;;;;;;12.10;7.20;;;;;;;8.67;83.39;100737.80;130492;1268;108930;-74
2022/10/05 03:14:18;;;;;;;10.40;6.40;;;;;;;8.68;83.59;100739.52;130412;1268;108761;-71
2022/10/05 03:17:30;;;;;;;11.30;7.00;;;;;;;8.71;83.59;100737.60;130399;1268;108730;-74
2022/10/05 03:20:43;;;;;;;13.70;7.60;;;;;;;8.77;83.57;100735.14;130344;1268;109155;-74
2022/10/05 03:23:59;;;;;;;11.30;7.90;;;;;;;8.81;83.63;100730.76;130509;1268;108732;-73
2022/10/05 03:27:14;;;;;;;11.20;7.10;;;;;;;8.85;83.51;100738.60;130465;1268;106747;-74
2022/10/05 03:30:24;;;;;;;15.70;8.40;;;;;;;8.87;83.61;100740.04;130448;1268;107502;-75
2022/10/05 03:33:42;;;;;;;12.90;7.20;;;;;;;8.84;83.69;100751.76;130362;1267;108870;-74
2022/10/05 03:36:55;;;;;;;12.90;7.10;;;;;;;8.84;83.76;100746.29;130359;1267;108846;-75
2022/10/05 03:40:07;;;;;;;11.50;6.90;;;;;;;8.85;83.83;100738.73;130272;1268;108742;-74
2022/10/05 03:43:27;;;;;;;11.30;7.20;;;;;;;8.88;83.84;100739.93;130463;1268;108794;-75
2022/10/05 03:46:51;;;;;;;10.80;7.30;;;;;;;8.89;83.79;100729.21;130335;1268;108671;-73
2022/10/05 03:50:16;;;;;;;11.10;7.90;;;;;;;8.85;83.74;100725.93;130332;1268;108841;-75
2022/10/05 03:53:26;;;;;;;12.90;7.90;;;;;;;8.83;83.72;100719.05;130424;1268;108860;-73
2022/10/05 03:56:37;;;;;;;12.00;7.50;;;;;;;8.81;83.89;100720.31;130412;1268;108815;-74
2022/10/05 03:59:51;;;;;;;9.20;6.10;;;;;;;8.78;83.91;100714.85;130344;1267;106698;-72
2022/10/05 04:03:04;;;;;;;11.40;7.80;;;;;;;8.76;83.91;100710.89;130276;1268;108733;-72
2022/10/05 04:06:15;;;;;;;12.00;7.80;;;;;;;8.79;84.07;100713.13;130512;1268;110475;-76
2022/10/05 04:09:27;;;;;;;12.20;7.90;;;;;;;8.82;83.92;100719.27;130403;1268;108768;-73
2022/10/05 04:12:37;;;;;;;12.60;7.80;;;;;;;8.84;84.07;100719.98;130462;1268;108706;-73
2022/10/05 04:15:46;;;;;;;12.20;7.40;;;;;;;8.86;84.04;100718.80;130201;1268;108870;-74
2022/10/05 04:18:56;;;;;;;12.70;7.30;;;;;;;8.83;84.09;100716.85;130412;1268;108949;-74
2022/10/05 04:22:09;;;;;;;12.10;6.90;;;;;;;8.83;84.19;100715.52;130220;1267;108800;-75
2022/10/05 04:25:18;;;;;;;11.50;7.60;;;;;;;8.82;84.34;100716.67;130517;1267;108797;-75
2022/10/05 04:28:33;;;;;;;12.70;7.80;;;;;;;8.81;84.23;100716.53;130188;1268;108421;-75
2022/10/05 04:31:57;;;;;;;18.10;11.50;;;;;;;8.82;84.23;100717.20;130336;1268;108723;-75
2022/10/05 04:35:24;;;;;;;57.10;31.50;;;;;;;8.81;84.21;100721.17;130387;1267;108671;-75
2022/10/05 04:38:40;;;;;;;73.40;34.60;;;;;;;8.81;84.06;100718.88;130463;1268;108652;-73
2022/10/05 04:42:00;;;;;;;22.40;12.80;;;;;;;8.79;84.46;100708.02;130354;1268;108853;-73
2022/10/05 04:45:24;;;;;;;14.80;8.60;;;;;;;8.78;84.38;100700.45;130406;1267;108871;-73
2022/10/05 04:48:46;;;;;;;14.10;9.10;;;;;;;8.79;84.43;100701.63;130236;1268;108580;-73
2022/10/05 04:51:55;;;;;;;;;;;;;;;8.81;84.37;100713.52;130662;1267;108861;-74
2022/10/05 04:55:12;;;;;;;24.00;18.00;;;;;;;8.83;84.39;100723.29;130230;1268;108978;-73
2022/10/05 04:58:32;;;;;;;24.70;18.30;;;;;;;8.82;84.34;100726.73;130403;1268;109118;-74
2022/10/05 05:01:55;;;;;;;150.40;73.10;;;;;;;8.84;84.35;100738.48;130158;1268;108908;-74
2022/10/05 05:05:27;;;;;;;76.90;40.40;;;;;;;8.85;84.33;100750.25;130275;1268;108819;-76
2022/10/05 05:08:51;;;;;;;36.70;19.50;;;;;;;8.88;84.54;100747.34;130356;1267;108634;-73
2022/10/05 05:12:09;;;;;;;71.60;45.80;;;;;;;8.91;84.39;100760.44;130346;1268;108989;-74
2022/10/05 05:15:35;;;;;;;29.00;20.00;;;;;;;8.96;84.61;100751.50;130385;1268;108836;-75
2022/10/05 05:18:57;;;;;;;15.80;10.00;;;;;;;9.02;84.45;100742.30;130362;1267;108880;-74
2022/10/05 05:22:07;;;;;;;14.10;9.40;;;;;;;9.09;84.52;100740.42;130426;1268;108689;-73
2022/10/05 05:25:36;;;;;;;15.00;9.90;;;;;;;9.16;84.50;100741.09;130715;1268;108688;-75
2022/10/05 05:28:51;;;;;;;21.60;14.40;;;;;;;9.21;84.68;100740.14;130631;1268;108847;-74
2022/10/05 05:32:06;;;;;;;20.30;11.00;;;;;;;9.23;84.50;100734.25;130493;1268;108711;-74
2022/10/05 05:35:30;;;;;;;15.80;9.20;;;;;;;9.25;84.67;100730.19;131675;1267;109041;-73
2022/10/05 05:38:38;;;;;;;16.10;10.40;;;;;;;9.31;84.65;100729.15;130470;1267;108888;-74
2022/10/05 05:41:51;;;;;;;15.80;8.60;;;;;;;9.37;84.55;100739.09;130273;1266;108660;-73
2022/10/05 05:45:05;;;;;;;17.10;11.50;;;;;;;9.44;84.57;100739.70;130411;1267;108768;-74
2022/10/05 05:48:19;;;;;;;23.70;15.00;;;;;;;9.49;84.48;100737.39;130368;1267;108987;-74
2022/10/05 05:51:33;;;;;;;21.10;13.40;;;;;;;9.52;84.48;100741.13;130484;1267;109483;-74
2022/10/05 05:54:42;;;;;;;21.30;10.50;;;;;;;9.54;84.52;100742.73;130481;1265;108922;-75
2022/10/05 05:57:53;;;;;;;13.50;8.80;;;;;;;9.59;84.78;100736.31;130243;1266;108556;-73
2022/10/05 06:01:05;;;;;;;15.70;8.70;;;;;;;9.66;84.80;100731.95;130376;1268;108869;-74
2022/10/05 06:04:15;;;;;;;16.90;10.40;;;;;;;9.76;84.83;100732.46;130353;1268;109035;-74
2022/10/05 06:07:25;;;;;;;13.10;8.50;;;;;;;9.87;84.66;100731.65;130259;1268;108700;-74
2022/10/05 06:10:40;;;;;;;95.70;51.60;;;;;;;9.98;84.53;100733.05;130490;1267;108664;-73
2022/10/05 06:13:47;;;;;;;189.70;86.70;;;;;;;10.09;84.55;100735.45;130402;1267;108866;-73
2022/10/05 06:16:59;;;;;;;35.70;17.40;;;;;;;10.19;84.55;100731.45;130402;1267;107667;-74
2022/10/05 06:20:14;;;;;;;39.40;21.80;;;;;;;10.32;84.68;100728.78;130452;1267;107996;-74
2022/10/05 06:23:25;;;;;;;35.10;19.40;;;;;;;10.47;84.54;100727.55;130319;1268;107694;-74
2022/10/05 06:26:42;;;;;;;;;;;;;;;10.65;84.56;100718.98;130426;1267;110111;-74
2022/10/05 06:30:05;;;;;;;27.10;16.00;;;;;;;10.80;84.27;100720.43;130440;1268;109216;-74
2022/10/05 06:33:22;;;;;;;24.00;15.00;;;;;;;10.92;84.00;100718.94;130477;1267;109450;-75
2022/10/05 06:36:40;;;;;;;20.50;13.00;;;;;;;11.04;83.90;100701.64;130352;1268;109197;-74
2022/10/05 06:40:01;;;;;;;29.90;20.00;;;;;;;11.12;83.91;100707.14;130414;1268;108646;-74
2022/10/05 06:43:21;;;;;;;34.00;18.10;;;;;;;11.18;83.83;100716.66;130338;1267;108808;-73
2022/10/05 06:47:00;;;;;;;58.70;31.60;;;;;;;11.27;84.03;100722.46;130018;1268;108772;-74
2022/10/05 06:50:42;;;;;;;38.20;19.50;;;;;;;11.38;83.63;100725.13;130411;1267;108725;-74
2022/10/05 06:54:35;;;;;;;38.10;19.00;;;;;;;11.51;83.47;100733.27;130387;1267;108696;-72
2022/10/05 06:57:53;;;;;;;64.50;30.10;;;;;;;11.64;83.63;100733.70;130573;1267;108795;-73
2022/10/05 07:01:05;;;;;;;105.70;44.00;;;;;;;11.73;83.36;100740.30;130329;1267;108848;-72
2022/10/05 07:04:24;;;;;;;130.50;56.10;;;;;;;11.79;83.36;100734.69;130403;1267;109192;-73
2022/10/05 07:07:41;;;;;;;92.40;38.90;;;;;;;11.86;83.21;100735.44;130266;1268;108872;-72
2022/10/05 07:10:58;;;;;;;70.60;31.30;;;;;;;11.94;83.14;100739.37;130356;1268;107673;-72
2022/10/05 07:14:18;;;;;;;197.70;81.30;;;;;;;12.04;82.86;100736.73;130396;1266;108687;-72
2022/10/05 07:17:43;;;;;;;67.10;35.50;;;;;;;12.17;82.90;100733.56;130466;1267;108577;-73
2022/10/05 07:20:55;;;;;;;87.20;58.60;;;;;;;12.32;82.88;100726.67;130378;1267;108730;-74
2022/10/05 07:24:13;;;;;;;22.80;15.70;;;;;;;12.47;82.90;100725.89;130368;1267;108681;-73
2022/10/05 07:27:22;;;;;;;16.50;10.00;;;;;;;12.59;82.73;100726.82;130404;1268;107779;-73
2022/10/05 07:30:32;;;;;;;16.60;10.00;;;;;;;12.69;82.48;100731.21;130554;1267;108977;-73
2022/10/05 07:33:45;;;;;;;57.60;30.30;;;;;;;12.74;82.45;100730.52;130318;1268;108923;-73
2022/10/05 07:40:32;;;;;;;89.40;45.20;;;;;;;12.91;82.22;100730.79;130465;1268;108780;-73
2022/10/05 07:43:46;;;;;;;20.60;12.50;;;;;;;12.96;82.25;100724.12;130367;1267;108732;-73
2022/10/05 07:46:56;;;;;;;15.10;9.10;;;;;;;13.07;82.15;100723.25;130479;1267;108701;-73
2022/10/05 07:50:13;;;;;;;14.00;8.80;;;;;;;13.17;81.87;100720.06;130497;1268;108816;-72
2022/10/05 07:53:24;;;;;;;12.60;9.20;;;;;;;13.29;82.00;100723.26;130398;1268;108900;-73
2022/10/05 07:56:33;;;;;;;11.50;8.90;;;;;;;13.38;81.61;100724.04;130405;1268;109073;-73
2022/10/05 07:59:44;;;;;;;14.80;10.70;;;;;;;13.46;81.67;100714.41;130324;1267;108762;-73
2022/10/05 08:02:54;;;;;;;13.60;7.30;;;;;;;13.54;81.72;100708.89;130456;1267;109071;-73
2022/10/05 08:06:02;;;;;;;10.70;6.30;;;;;;;13.61;81.43;100700.48;130423;1267;108977;-73
2022/10/05 08:09:21;;;;;;;7.30;5.70;;;;;;;13.65;81.09;100694.91;130487;1267;108892;-74
2022/10/05 08:12:34;;;;;;;8.30;5.90;;;;;;;13.71;81.33;100696.35;130400;1268;108988;-73
2022/10/05 08:15:42;;;;;;;8.30;5.00;;;;;;;13.81;81.15;100696.05;130448;1266;108945;-72
2022/10/05 08:18:57;;;;;;;11.80;6.70;;;;;;;13.92;80.97;100699.40;130517;1267;107334;-72
2022/10/05 08:22:09;;;;;;;9.20;6.00;;;;;;;14.05;80.89;100702.48;130449;1267;107695;-73
2022/10/05 08:25:23;;;;;;;8.80;6.00;;;;;;;14.18;80.74;100699.31;130475;1267;108783;-74
2022/10/05 08:28:35;;;;;;;9.50;7.20;;;;;;;14.30;80.44;100692.10;130448;1267;108778;-73
2022/10/05 08:31:43;;;;;;;9.40;6.40;;;;;;;14.42;80.54;100694.03;130428;1268;108876;-75
2022/10/05 08:34:54;;;;;;;10.70;6.70;;;;;;;14.49;80.09;100695.67;130376;1267;108841;-74
2022/10/05 08:38:00;;;;;;;11.30;7.10;;;;;;;14.53;79.85;100695.60;130366;1267;108759;-74
2022/10/05 08:41:42;;;;;;;10.10;6.20;;;;;;;14.56;79.73;100697.36;130416;1267;108653;-74
2022/10/05 08:44:57;;;;;;;;;;;;;;;14.61;79.92;100691.07;130461;1268;108697;-73
2022/10/05 08:48:23;;;;;;;11.60;7.70;;;;;;;14.64;79.56;100690.06;130343;1267;107486;-75
2022/10/05 08:52:00;;;;;;;11.10;7.20;;;;;;;14.65;79.23;100684.48;130552;1268;108705;-75
2022/10/05 08:55:32;;;;;;;10.10;6.60;;;;;;;14.70;78.94;100688.07;130449;1267;108857;-75
2022/10/05 08:59:01;;;;;;;9.30;7.00;;;;;;;14.81;78.90;100686.92;130387;1267;109004;-74
2022/10/05 09:02:20;;;;;;;12.50;8.30;;;;;;;14.93;79.06;100687.34;130482;1267;108682;-75
2022/10/05 09:05:45;;;;;;;13.90;8.30;;;;;;;15.04;78.73;100686.34;130354;1267;109083;-74
2022/10/05 09:09:09;;;;;;;12.20;7.10;;;;;;;15.11;78.59;100683.56;130564;1267;108674;-74
2022/10/05 09:12:46;;;;;;;9.70;7.00;;;;;;;15.13;78.33;100680.44;130459;1268;108601;-74
2022/10/05 09:16:20;;;;;;;10.10;7.40;;;;;;;15.15;78.19;100683.13;130344;1266;108860;-74
2022/10/05 09:19:59;;;;;;;14.10;9.20;;;;;;;15.14;78.12;100682.82;130408;1267;107285;-74
2022/10/05 09:23:19;;;;;;;10.70;7.40;;;;;;;15.15;78.27;100678.42;130461;1268;108792;-74
2022/10/05 09:26:55;;;;;;;8.20;6.30;;;;;;;15.21;78.10;100676.38;130359;1267;109046;-74
2022/10/05 09:30:28;;;;;;;9.40;6.80;;;;;;;15.27;77.94;100673.87;130459;1267;108725;-75
2022/10/05 09:33:54;;;;;;;9.60;6.50;;;;;;;15.37;77.93;100674.61;130506;1267;108734;-75
2022/10/05 09:37:39;;;;;;;9.60;6.90;;;;;;;15.49;77.71;100673.91;130557;1267;108737;-75
2022/10/05 09:41:27;;;;;;;10.60;6.20;;;;;;;15.63;77.63;100670.28;130160;1267;109033;-75
2022/10/05 09:45:12;;;;;;;8.90;6.00;;;;;;;15.74;77.21;100671.23;130326;1268;108795;-75
2022/10/05 09:48:49;;;;;;;8.40;6.40;;;;;;;15.81;77.22;100669.70;130263;1268;108679;-74
2022/10/05 09:52:18;;;;;;;9.70;6.70;;;;;;;15.80;77.03;100663.80;130276;1268;108769;-74
2022/10/05 09:55:51;;;;;;;9.30;6.10;;;;;;;15.77;76.82;100669.43;130339;1268;108885;-74
2022/10/05 09:59:34;;;;;;;9.40;6.80;;;;;;;15.75;76.96;100672.16;130301;1269;108742;-74
2022/10/05 10:03:04;;;;;;;10.50;6.30;;;;;;;15.70;76.34;100683.30;130268;1268;108551;-75
2022/10/05 10:06:33;;;;;;;8.80;5.90;;;;;;;15.63;76.50;100682.66;130396;1270;107416;-74
2022/10/05 10:09:52;;;;;;;9.00;6.30;;;;;;;15.59;76.58;100680.99;130378;1269;108733;-75
2022/10/05 10:13:15;;;;;;;10.50;6.60;;;;;;;15.58;76.70;100682.88;130309;1269;108479;-74
2022/10/05 10:16:30;;;;;;;9.90;6.20;;;;;;;15.57;76.24;100675.13;130278;1268;108761;-76
2022/10/05 10:20:06;;;;;;;10.60;6.50;;;;;;;15.61;76.34;100671.57;130350;1269;107112;-73
2022/10/05 10:23:23;;;;;;;10.00;7.00;;;;;;;15.70;76.11;100667.58;130312;1269;108845;-72
2022/10/05 10:27:09;;;;;;;11.70;6.80;;;;;;;15.81;75.91;100665.71;130227;1270;107245;-73
2022/10/05 10:30:37;;;;;;;10.10;7.20;;;;;;;15.95;75.64;100661.11;130318;1270;108076;-74
2022/10/05 10:34:20;;;;;;;9.00;6.30;;;;;;;15.95;75.39;100660.41;130384;1268;108788;-74
2022/10/05 10:37:41;;;;;;;8.50;6.40;;;;;;;15.89;75.38;100656.22;130357;1270;107059;-74
2022/10/05 10:41:05;;;;;;;9.20;5.80;;;;;;;15.83;75.45;100655.98;130359;1270;109742;-74
2022/10/05 10:44:37;;;;;;;9.20;6.70;;;;;;;15.81;75.53;100654.11;130527;1268;108875;-74
2022/10/05 10:48:03;;;;;;;8.90;6.30;;;;;;;15.92;75.50;100651.79;130391;1267;108692;-74
2022/10/05 10:51:39;;;;;;;8.80;6.00;;;;;;;16.09;74.89;100645.27;130455;1267;108846;-75
2022/10/05 10:55:04;;;;;;;8.90;5.90;;;;;;;16.23;74.95;100641.87;130461;1267;109111;-75
2022/10/05 10:58:43;;;;;;;9.50;6.10;;;;;;;16.37;74.86;100651.14;130397;1267;107282;-75
2022/10/05 11:02:07;;;;;;;10.10;6.00;;;;;;;16.52;74.95;100657.11;130307;1269;108772;-75
2022/10/05 11:05:31;;;;;;;7.40;5.30;;;;;;;16.61;74.23;100648.84;130489;1268;107079;-74
2022/10/05 11:08:54;;;;;;;9.00;5.60;;;;;;;16.68;74.55;100642.94;130470;1267;108708;-75
2022/10/05 11:12:35;;;;;;;9.90;5.30;;;;;;;16.77;73.97;100624.84;130465;1268;109041;-75
2022/10/05 11:16:05;;;;;;;8.90;4.80;;;;;;;16.84;74.07;100628.09;130464;1267;108840;-74
2022/10/05 11:19:44;;;;;;;6.50;4.80;;;;;;;16.86;73.79;100620.70;130513;1268;108640;-75
2022/10/05 11:22:58;;;;;;;8.70;5.10;;;;;;;16.88;73.89;100621.38;130436;1267;108714;-74
2022/10/05 11:26:19;;;;;;;8.50;5.20;;;;;;;16.90;73.75;100618.84;130551;1267;108978;-74
2022/10/05 11:29:46;;;;;;;8.30;4.90;;;;;;;16.92;73.59;100615.91;130484;1267;108857;-75
2022/10/05 11:33:42;;;;;;;7.20;4.90;;;;;;;16.93;73.58;100617.62;130420;1268;108734;-75
2022/10/05 11:37:22;;;;;;;6.60;4.90;;;;;;;16.94;73.27;100612.30;130665;1268;108887;-75
2022/10/05 11:40:46;;;;;;;5.70;4.20;;;;;;;16.94;73.13;100608.36;130464;1266;108923;-74
2022/10/05 11:44:15;;;;;;;7.90;4.40;;;;;;;16.96;73.39;100601.62;130492;1268;108903;-74
2022/10/05 11:47:27;;;;;;;6.10;4.30;;;;;;;17.01;73.19;100603.18;130522;1268;108914;-75
2022/10/05 11:50:39;;;;;;;6.40;4.20;;;;;;;17.04;73.24;100597.70;130494;1268;109007;-75
2022/10/05 11:53:52;;;;;;;7.40;4.10;;;;;;;17.11;73.11;100597.39;130414;1267;108689;-75
2022/10/05 11:57:03;;;;;;;7.90;4.00;;;;;;;17.19;72.81;100597.16;130304;1268;108965;-75
2022/10/05 12:00:16;;;;;;;5.80;3.70;;;;;;;17.23;73.12;100601.15;130593;1267;108895;-75
2022/10/05 12:03:37;;;;;;;5.40;3.60;;;;;;;17.27;72.73;100601.91;130596;1267;108768;-75
2022/10/05 12:07:07;;;;;;;5.80;4.10;;;;;;;17.28;72.40;100602.33;130512;1267;108674;-75
2022/10/05 12:10:29;;;;;;;7.40;4.00;;;;;;;17.30;72.47;100600.53;130612;1267;108503;-75
2022/10/05 12:13:42;;;;;;;7.30;4.30;;;;;;;17.34;72.10;100601.48;130495;1267;108575;-75
2022/10/05 12:16:54;;;;;;;4.90;3.70;;;;;;;17.36;72.07;100601.05;130517;1267;108779;-75
2022/10/05 12:20:07;;;;;;;5.20;3.50;;;;;;;17.39;71.62;100594.61;130328;1267;108616;-74
2022/10/05 12:23:19;;;;;;;5.30;3.40;;;;;;;17.42;72.13;100592.79;130432;1267;108882;-74
2022/10/05 12:26:31;;;;;;;6.30;3.70;;;;;;;17.45;72.20;100593.19;130448;1267;108845;-74
2022/10/05 12:29:42;;;;;;;4.70;3.20;;;;;;;17.51;72.05;100594.22;130456;1267;108853;-74
2022/10/05 12:33:00;;;;;;;5.10;3.70;;;;;;;17.56;71.97;100593.19;130453;1267;108999;-74
2022/10/05 12:36:12;;;;;;;6.80;3.60;;;;;;;17.56;71.87;100594.36;130511;1268;108714;-73
2022/10/05 12:39:26;;;;;;;5.10;3.30;;;;;;;17.56;71.65;100587.55;130500;1268;108766;-73
2022/10/05 12:42:40;;;;;;;5.40;3.70;;;;;;;17.55;71.41;100574.42;130445;1268;108713;-74
2022/10/05 12:45:59;;;;;;;5.60;3.60;;;;;;;17.52;71.51;100572.02;130422;1267;108947;-73
2022/10/05 12:49:26;;;;;;;4.60;3.40;;;;;;;17.51;71.33;100576.66;130458;1267;108859;-73
2022/10/05 12:52:45;;;;;;;6.10;3.70;;;;;;;17.45;70.94;100572.56;130444;1267;108974;-74
2022/10/05 12:56:01;;;;;;;4.60;3.30;;;;;;;17.41;70.91;100572.15;130515;1267;108663;-74
2022/10/05 12:59:19;;;;;;;5.10;3.10;;;;;;;17.37;71.01;100566.58;130509;1267;108971;-73
2022/10/05 13:02:37;;;;;;;7.60;5.50;;;;;;;17.33;71.03;100566.00;130408;1267;107439;-74
2022/10/05 13:05:52;;;;;;;22.10;14.80;;;;;;;17.30;71.00;100556.08;130531;1267;108740;-73
2022/10/05 13:09:03;;;;;;;19.90;12.70;;;;;;;17.25;71.22;100553.38;130488;1267;108636;-76
2022/10/05 13:12:17;;;;;;;22.40;11.70;;;;;;;17.22;71.11;100550.64;130516;1267;108608;-75
2022/10/05 13:15:29;;;;;;;7.60;5.10;;;;;;;17.15;70.82;100547.49;130594;1267;108633;-74
2022/10/05 13:18:47;;;;;;;7.10;4.80;;;;;;;17.11;70.91;100545.16;130563;1267;109083;-74
2022/10/05 13:22:15;;;;;;;25.30;16.10;;;;;;;17.10;71.11;100545.94;130529;1266;108706;-73
2022/10/05 13:25:27;;;;;;;13.50;10.40;;;;;;;17.05;70.84;100551.10;130531;1267;108729;-74
2022/10/05 13:28:39;;;;;;;41.90;29.20;;;;;;;17.00;70.85;100551.83;130486;1267;108717;-74
2022/10/05 13:31:48;;;;;;;34.90;22.20;;;;;;;16.97;70.76;100552.83;130469;1268;108831;-74
2022/10/05 13:35:03;;;;;;;32.00;19.20;;;;;;;16.92;70.62;100553.16;130476;1268;108753;-75
2022/10/05 13:38:25;;;;;;;18.00;13.60;;;;;;;16.90;70.63;100554.85;130366;1267;108110;-74
2022/10/05 13:41:48;;;;;;;20.40;15.60;;;;;;;16.88;70.49;100552.99;130437;1267;107682;-74
2022/10/05 13:44:57;;;;;;;13.10;9.10;;;;;;;16.87;70.59;100558.20;130531;1267;108736;-75
2022/10/05 13:48:18;;;;;;;18.20;11.80;;;;;;;16.86;70.69;100558.54;130655;1267;109907;-75
2022/10/05 13:51:28;;;;;;;30.50;23.20;;;;;;;16.88;70.62;100563.57;130422;1267;108906;-75
2022/10/05 13:54:42;;;;;;;25.40;18.20;;;;;;;16.87;70.74;100558.18;130462;1268;108677;-75
2022/10/05 13:58:02;;;;;;;15.00;11.20;;;;;;;16.88;70.95;100558.55;130464;1266;108973;-75
2022/10/05 14:01:15;;;;;;;7.40;5.00;;;;;;;16.88;70.95;100556.73;130422;1267;108856;-75
2022/10/05 14:04:24;;;;;;;6.80;4.20;;;;;;;16.93;71.16;100555.80;130774;1267;108994;-75
2022/10/05 14:07:37;;;;;;;4.40;3.40;;;;;;;16.99;71.06;100553.02;130578;1267;108988;-77
2022/10/05 14:10:45;;;;;;;5.80;4.60;;;;;;;17.06;71.04;100548.41;130425;1268;108508;-75
2022/10/05 14:13:51;;;;;;;5.60;3.70;;;;;;;17.11;70.98;100546.88;130435;1267;108662;-73
2022/10/05 14:16:59;;;;;;;109.20;64.40;;;;;;;17.13;70.96;100545.80;130567;1267;108464;-76
2022/10/05 14:20:19;;;;;;;28.90;16.40;;;;;;;17.13;70.88;100543.98;130574;1267;108714;-77
2022/10/05 14:23:27;;;;;;;10.60;6.70;;;;;;;17.10;70.88;100540.59;130485;1267;109023;-77
2022/10/05 14:26:37;;;;;;;9.30;6.90;;;;;;;17.04;70.89;100546.08;130551;1266;107579;-77
2022/10/05 14:29:43;;;;;;;8.40;5.60;;;;;;;16.99;70.97;100545.21;130503;1268;108932;-78
2022/10/05 14:32:55;;;;;;;6.50;4.40;;;;;;;16.92;70.97;100543.35;130402;1268;107413;-77
2022/10/05 14:35:59;;;;;;;;;;;;;;;16.85;71.06;100539.61;130368;1269;106620;-77
2022/10/05 14:39:11;;;;;;;6.10;4.10;;;;;;;16.80;71.07;100535.42;130516;1267;108976;-76
2022/10/05 14:42:20;;;;;;;6.50;3.80;;;;;;;16.71;71.07;100536.28;130527;1267;108782;-76
2022/10/05 14:45:28;;;;;;;8.00;4.60;;;;;;;16.65;71.16;100530.86;130393;1270;108761;-75
2022/10/05 14:48:43;;;;;;;6.20;4.20;;;;;;;16.60;71.29;100526.91;130572;1267;108979;-75
2022/10/05 14:51:50;;;;;;;5.50;3.70;;;;;;;16.53;71.39;100525.04;130543;1267;108724;-74
2022/10/05 14:55:02;;;;;;;7.10;3.70;;;;;;;16.46;71.43;100519.11;130532;1267;108913;-74